ADDS METAR Data INFO
IDs: Format: Raw Decoded Include TAF

Data at: 0748 UTC 21 Jul 2018

PAHP 210656Z AUTO 11004KT 10SM SCT031 14/13 A3013 RMK AO2 SLP239 T01440128
PAHP 210556Z AUTO 16006KT 10SM BKN031 14/12 A3013 RMK AO2 SLP241 T01440117 10150 20139 56005
PAHP 210456Z AUTO 16008KT 10SM BKN033 14/12 A3013 RMK AO2 SLP241 T01440117
PAHP 210444Z AUTO 16008KT 10SM FEW028 BKN033 15/12 A3013 RMK AO2
PAHP 210356Z AUTO 17007KT 10SM BKN029 OVC034 14/12 A3014 RMK AO2 SLP245 T01390117
PAHP 210256Z AUTO 17009KT 10SM BKN045 BKN050 14/11 A3015 RMK AO2 SLP246 T01390111 56002
PAHP 210156Z AUTO 19008KT 10SM OVC028 14/11 A3015 RMK AO2 SLP246 T01440111
PAHP 210151Z AUTO 19007KT 10SM OVC028 14/11 A3015 RMK AO2
PAHP 210005Z AUTO 20007KT 10SM SCT028 OVC045 14/12 A3016 RMK AO2
PAHP 202356Z AUTO 20006KT 10SM BKN028 OVC049 14/12 A3016 RMK AO2 SLP251 T01440117 10167 20122 58003
PAHP 202308Z AUTO 21006KT 10SM BKN024 BKN029 14/12 A3017 RMK AO2
PAHP 202256Z AUTO 20006KT 10SM SCT024 BKN035 15/12 A3017 RMK AO2 SLP253 T01500122
PAHP 202118Z AUTO 11014G18KT 10SM FEW029 17/11 A3017 RMK AO2
PAHP 202056Z AUTO 11013KT 10SM BKN031 17/11 A3017 RMK AO2 SLP253 T01670111 56010
PAHP 201956Z AUTO 09012KT 10SM FEW033 BKN045 14/10 A3017 RMK AO2 SLP255 T01440100
PAHP 201856Z AUTO 09013KT 10SM OVC045 13/09 A3019 RMK AO2 SLP260 T01330094
PAHP 201756Z AUTO 10012KT 10SM OVC045 13/09 A3020 RMK AO2 SLP264 T01280094 10128 20117 58002
PAHP 201556Z AUTO 10009KT 10SM OVC044 12/09 A3020 RMK AO2 SLP266 T01170094
PAHP 201256Z AUTO 11009KT 10SM SCT040 12/10 A3022 RMK AO2 SLP271 T01220100
PAHP 201156Z AUTO 10009KT 10SM BKN038 12/11 A3022 RMK AO2 SLP273 T01220106 10128 20117 55005
PAHP 201056Z AUTO 06007KT 10SM FEW028 12/11 A3022 RMK AO2 SLP273 T01170106
PAHP 200956Z AUTO 07005KT 10SM SCT037 12/10 A3024 RMK AO2 SLP277 T01170100
PAHP 200856Z AUTO 03005KT 10SM SCT035 12/10 A3024 RMK AO2 SLP278 T01170100 401280094 52001
PAHP 200756Z AUTO 02005KT 10SM BKN035 12/09 A3024 RMK AO2 SLP278 T01170094
PAHP 200656Z AUTO 03004KT 10SM BKN035 12/09 A3023 RMK AO2 SLP276 T01220094
PAHP 200515Z AUTO 00000KT 10SM OVC031 12/08 A3024 RMK AO2
PAHP 200356Z AUTO 17003KT 10SM OVC029 12/08 A3024 RMK AO2 SLP280 T01170078
PAHP 200256Z AUTO 17004KT 10SM OVC025 12/08 A3025 RMK AO2 SLP281 T01170078 55003
PAHP 200056Z AUTO 23003KT 10SM OVC019 12/09 A3026 RMK AO2 SLP284 T01170089
PAHP 192356Z AUTO 17006KT 10SM BKN017 11/08 A3026 RMK AO2 SLP284 T01060083 10111 20094 51004
PAHP 192256Z AUTO 19004KT 10SM BKN015 11/08 A3026 RMK AO2 SLP284 T01060083
PAHP 192156Z AUTO 21004KT 10SM OVC017 11/08 A3025 RMK AO2 SLP283 T01060083